Time;durP1;ratioP1;P1;durP2;ratioP2;P2;SDS_P1;SDS_P2;PMS_P1;PMS_P2;Temp;Humidity;BMP_temperature;BMP_pressure;BME280_temperature;BME280_humidity;BME280_pressure;Samples;Min_cycle;Max_cycle;Signal;HPM_P1;HPM_P2
2023/04/27 00:01:11;;;;;;;;;;;6.00;99.90;;;;;;5014375;28;19913;-72
2023/04/27 00:03:37;;;;;;;;;;;6.00;99.90;;;;;;5031110;28;20373;-72
2023/04/27 00:06:03;;;;;;;;;;;6.00;99.90;;;;;;5011435;28;20360;-71
2023/04/27 00:08:29;;;;;;;;;;;6.00;99.90;;;;;;5016446;28;19909;-73
2023/04/27 00:10:58;;;;;;;;;;;6.00;99.90;;;;;;5011638;28;19920;-70
2023/04/27 00:13:23;;;;;;;;;;;5.90;99.90;;;;;;5013638;28;20359;-72
2023/04/27 00:15:49;;;;;;;;;;;5.90;99.90;;;;;;5012225;28;20246;-69
2023/04/27 00:18:14;;;;;;;;;;;5.90;99.90;;;;;;5014429;28;20352;-72
2023/04/27 00:20:40;;;;;;;;;;;5.90;99.90;;;;;;5014081;28;19925;-70
2023/04/27 00:23:06;;;;;;;;;;;5.90;99.90;;;;;;4998373;28;19920;-70
2023/04/27 00:25:31;;;;;;;;;;;5.90;99.90;;;;;;5012675;28;20039;-71
2023/04/27 00:27:57;;;;;;;;;;;5.80;99.90;;;;;;5016007;28;19956;-72
2023/04/27 00:30:23;;;;;;;;;;;5.80;99.90;;;;;;5011498;28;20115;-73
2023/04/27 00:32:48;;;;;;;;;;;5.80;99.90;;;;;;5014110;28;20360;-72
2023/04/27 00:35:14;;;;;;;;;;;5.80;99.90;;;;;;5012931;28;20365;-69
2023/04/27 00:37:40;;;;;;;;;;;5.80;99.90;;;;;;5014292;28;19917;-71
2023/04/27 00:40:06;;;;;;;;;;;5.70;99.90;;;;;;5014950;28;19909;-73
2023/04/27 00:42:32;;;;;;;;;;;5.80;99.90;;;;;;4998005;28;19916;-72
2023/04/27 00:44:58;;;;;;;;;;;5.70;99.90;;;;;;5013087;28;19998;-73
2023/04/27 00:47:24;;;;;;;;;;;5.70;99.90;;;;;;5014299;28;19949;-71
2023/04/27 00:49:50;;;;;;;;;;;5.70;99.90;;;;;;5010742;28;19928;-72
2023/04/27 00:52:16;;;;;;;;;;;5.70;99.90;;;;;;5017659;28;19958;-73
2023/04/27 00:54:41;;;;;;;;;;;5.70;99.90;;;;;;5011097;28;20286;-72
2023/04/27 00:57:07;;;;;;;;;;;5.70;99.90;;;;;;5012634;28;20369;-72
2023/04/27 00:59:33;;;;;;;;;;;5.70;99.90;;;;;;5012329;28;19999;-71
2023/04/27 01:01:59;;;;;;;;;;;5.70;99.90;;;;;;5011674;28;20382;-71
2023/04/27 01:04:25;;;;;;;;;;;5.80;99.90;;;;;;5010314;28;20476;-74
2023/04/27 01:06:52;;;;;;;;;;;5.70;99.90;;;;;;5013631;28;19910;-73
2023/04/27 01:09:18;;;;;;;;;;;5.80;99.90;;;;;;5012723;28;19917;-72
2023/04/27 01:11:47;;;;;;;;;;;5.70;99.90;;;;;;5016942;28;19917;-72
2023/04/27 01:14:13;;;;;;;;;;;5.70;99.90;;;;;;5011697;28;19917;-71
2023/04/27 01:16:39;;;;;;;;;;;5.70;99.90;;;;;;5002805;28;19916;-73
2023/04/27 01:19:06;;;;;;;;;;;5.70;99.90;;;;;;5011084;28;19936;-73
2023/04/27 01:21:32;;;;;;;;;;;5.60;99.90;;;;;;5017486;28;19916;-72
2023/04/27 01:23:57;;;;;;;;;;;5.60;99.90;;;;;;5015250;28;19909;-73
2023/04/27 01:26:23;;;;;;;;;;;5.70;99.90;;;;;;5013327;28;20482;-74
2023/04/27 01:28:48;;;;;;;;;;;5.70;99.90;;;;;;5015889;28;19909;-72
2023/04/27 01:31:14;;;;;;;;;;;5.60;99.90;;;;;;5010531;28;19917;-72
2023/04/27 01:33:40;;;;;;;;;;;5.60;99.90;;;;;;5013756;28;19909;-72
2023/04/27 01:36:06;;;;;;;;;;;5.50;99.90;;;;;;5013755;28;20027;-72
2023/04/27 01:38:32;;;;;;;;;;;5.50;99.90;;;;;;5011431;28;20377;-72
2023/04/27 01:41:00;;;;;;;;;;;5.50;99.90;;;;;;5010516;28;19913;-72
2023/04/27 01:43:32;;;;;;;;;;;5.50;99.90;;;;;;5011523;28;19918;-72
2023/04/27 01:46:11;;;;;;;;;;;5.50;99.90;;;;;;5012893;28;20004;-72
2023/04/27 01:48:38;;;;;;;;;;;5.50;99.90;;;;;;5011846;28;19910;-71
2023/04/27 01:51:04;;;;;;;;;;;5.40;99.90;;;;;;5013085;28;19968;-72
2023/04/27 01:53:30;;;;;;;;;;;5.40;99.90;;;;;;5013909;28;19920;-71
2023/04/27 01:55:56;;;;;;;;;;;5.40;99.90;;;;;;5013102;28;19917;-72
2023/04/27 01:58:22;;;;;;;;;;;5.40;99.90;;;;;;5008306;28;20220;-72
2023/04/27 02:00:47;;;;;;;;;;;5.40;99.90;;;;;;5007850;28;19916;-73
2023/04/27 02:03:13;;;;;;;;;;;5.40;99.90;;;;;;5016222;28;19945;-73
2023/04/27 02:05:38;;;;;;;;;;;5.40;99.90;;;;;;5010892;28;19916;-72
2023/04/27 02:08:04;;;;;;;;;;;5.40;99.90;;;;;;5012064;28;19954;-71
2023/04/27 02:10:30;;;;;;;;;;;5.50;99.90;;;;;;5013492;28;20249;-71
2023/04/27 02:12:56;;;;;;;;;;;5.40;99.90;;;;;;5012566;28;19913;-71
2023/04/27 02:15:22;;;;;;;;;;;5.40;99.90;;;;;;5012338;28;19968;-72
2023/04/27 02:17:47;;;;;;;;;;;5.40;99.90;;;;;;4991470;28;19924;-72
2023/04/27 02:20:13;;;;;;;;;;;5.40;99.90;;;;;;5010608;28;19917;-72
2023/04/27 02:22:43;;;;;;;;;;;5.40;99.90;;;;;;5011224;28;19917;-71
2023/04/27 02:25:10;;;;;;;;;;;5.40;99.90;;;;;;5010689;28;20356;-72
2023/04/27 02:27:39;;;;;;;;;;;5.40;99.90;;;;;;5013670;28;19913;-72
2023/04/27 02:30:06;;;;;;;;;;;5.50;99.90;;;;;;5011936;28;20366;-72
2023/04/27 02:32:32;;;;;;;;;;;5.40;99.90;;;;;;5009309;28;20047;-71
2023/04/27 02:34:57;;;;;;;;;;;5.50;99.90;;;;;;5014703;28;19924;-71
2023/04/27 02:37:23;;;;;;;;;;;5.50;99.90;;;;;;5009768;28;19909;-72
2023/04/27 02:39:48;;;;;;;;;;;5.50;99.90;;;;;;5009620;28;20021;-72
2023/04/27 02:42:17;;;;;;;;;;;5.50;99.90;;;;;;5013894;28;19909;-70
2023/04/27 02:44:43;;;;;;;;;;;5.50;99.90;;;;;;5010459;28;19920;-73
2023/04/27 02:47:08;;;;;;;;;;;5.60;99.90;;;;;;5011312;28;19917;-72
2023/04/27 02:49:34;;;;;;;;;;;5.60;99.90;;;;;;5009077;28;19924;-71
2023/04/27 02:52:00;;;;;;;;;;;5.60;99.90;;;;;;5014619;28;19913;-71
2023/04/27 02:54:25;;;;;;;;;;;5.60;99.90;;;;;;5013026;28;20441;-71
2023/04/27 02:56:51;;;;;;;;;;;5.60;99.90;;;;;;5009746;28;19936;-71
2023/04/27 02:59:17;;;;;;;;;;;5.60;99.90;;;;;;5009455;28;20389;-73
2023/04/27 03:01:42;;;;;;;;;;;5.50;99.90;;;;;;5008335;28;19920;-72
2023/04/27 03:04:08;;;;;;;;;;;5.50;99.90;;;;;;5009724;28;19913;-71
2023/04/27 03:06:34;;;;;;;;;;;5.40;99.90;;;;;;5008669;28;19909;-72
2023/04/27 03:08:59;;;;;;;;;;;5.40;99.90;;;;;;5009548;28;19909;-72
2023/04/27 03:11:25;;;;;;;;;;;5.40;99.90;;;;;;5013540;28;19912;-71
2023/04/27 03:13:51;;;;;;;;;;;5.30;99.90;;;;;;5012113;28;19924;-71
2023/04/27 03:16:24;;;;;;;;;;;5.40;99.90;;;;;;5008232;28;20381;-71
2023/04/27 03:18:50;;;;;;;;;;;5.30;99.90;;;;;;5011097;28;19980;-71
2023/04/27 03:21:15;;;;;;;;;;;5.30;99.90;;;;;;5012029;28;20463;-73
2023/04/27 03:23:41;;;;;;;;;;;5.30;99.90;;;;;;5007419;28;19909;-73
2023/04/27 03:26:08;;;;;;;;;;;5.20;99.90;;;;;;5014503;28;19913;-70
2023/04/27 03:28:33;;;;;;;;;;;5.20;99.90;;;;;;5023481;28;19931;-72
2023/04/27 03:31:00;;;;;;;;;;;5.20;99.90;;;;;;5021951;28;20008;-72
2023/04/27 03:33:28;;;;;;;;;;;5.20;99.90;;;;;;5018304;28;20312;-73
2023/04/27 03:35:57;;;;;;;;;;;5.20;99.90;;;;;;5014638;28;20289;-73
2023/04/27 03:38:23;;;;;;;;;;;5.20;99.90;;;;;;5013184;28;19917;-72
2023/04/27 03:40:49;;;;;;;;;;;5.10;99.90;;;;;;5012229;28;19971;-73
2023/04/27 03:43:14;;;;;;;;;;;5.20;99.90;;;;;;5014399;28;19913;-72
2023/04/27 03:45:40;;;;;;;;;;;5.20;99.90;;;;;;5013818;28;19913;-72
2023/04/27 03:48:06;;;;;;;;;;;5.20;99.90;;;;;;4995810;28;20361;-72
2023/04/27 03:50:31;;;;;;;;;;;5.10;99.90;;;;;;5013441;28;19978;-73
2023/04/27 03:52:57;;;;;;;;;;;5.10;99.90;;;;;;5010203;28;19917;-71
2023/04/27 03:55:24;;;;;;;;;;;5.10;99.90;;;;;;5014814;28;19916;-72
2023/04/27 03:57:50;;;;;;;;;;;5.10;99.90;;;;;;5044490;28;19913;-71
2023/04/27 04:00:17;;;;;;;;;;;5.00;99.90;;;;;;5012650;28;19916;-72
2023/04/27 04:02:43;;;;;;;;;;;5.10;99.90;;;;;;5013344;28;20119;-72
2023/04/27 04:05:09;;;;;;;;;;;5.00;99.90;;;;;;5013906;28;20401;-72
2023/04/27 04:07:34;;;;;;;;;;;5.00;99.90;;;;;;5016680;28;19913;-72
2023/04/27 04:10:00;;;;;;;;;;;5.00;99.90;;;;;;5014825;28;19920;-71
2023/04/27 04:12:26;;;;;;;;;;;5.00;99.90;;;;;;5018316;28;19916;-72
2023/04/27 04:14:52;;;;;;;;;;;5.00;99.90;;;;;;5014859;28;20437;-71
2023/04/27 04:17:17;;;;;;;;;;;5.00;99.90;;;;;;5012745;28;20342;-71
2023/04/27 04:19:43;;;;;;;;;;;5.00;99.90;;;;;;5017733;28;19917;-72
2023/04/27 04:22:09;;;;;;;;;;;5.00;99.90;;;;;;5035572;28;19909;-71
2023/04/27 04:24:35;;;;;;;;;;;5.00;99.90;;;;;;5017914;28;19913;-70
2023/04/27 04:27:01;;;;;;;;;;;5.00;99.90;;;;;;5016125;28;19913;-70
2023/04/27 04:29:27;;;;;;;;;;;5.00;99.90;;;;;;5030255;28;19963;-70
2023/04/27 04:31:54;;;;;;;;;;;5.00;99.90;;;;;;5015797;28;19936;-72
2023/04/27 04:34:21;;;;;;;;;;;5.00;99.90;;;;;;5019789;28;19913;-73
2023/04/27 04:36:50;;;;;;;;;;;4.90;99.90;;;;;;5016766;28;19931;-71
2023/04/27 04:39:16;;;;;;;;;;;5.00;99.90;;;;;;5016249;28;20394;-71
2023/04/27 04:41:42;;;;;;;;;;;5.00;99.90;;;;;;5018808;28;19909;-70
2023/04/27 04:44:08;;;;;;;;;;;5.00;99.90;;;;;;5016672;28;19909;-71
2023/04/27 04:46:33;;;;;;;;;;;5.00;99.90;;;;;;5014791;28;19921;-71
2023/04/27 04:49:01;;;;;;;;;;;5.00;99.90;;;;;;5017993;28;19917;-70
2023/04/27 04:51:26;;;;;;;;;;;5.00;99.90;;;;;;5016796;28;19916;-71
2023/04/27 04:53:52;;;;;;;;;;;5.00;99.90;;;;;;5014438;28;19913;-72
2023/04/27 04:56:18;;;;;;;;;;;5.10;99.90;;;;;;5013970;28;19909;-72
2023/04/27 04:58:43;;;;;;;;;;;5.10;99.90;;;;;;5016334;28;20019;-72
2023/04/27 05:01:10;;;;;;;;;;;5.10;99.90;;;;;;5013383;28;19913;-70
2023/04/27 05:03:36;;;;;;;;;;;5.10;99.90;;;;;;5013017;28;19917;-72
2023/04/27 05:06:01;;;;;;;;;;;5.10;99.90;;;;;;5018456;28;19971;-72
2023/04/27 05:08:27;;;;;;;;;;;5.10;99.90;;;;;;4997318;28;19909;-72
2023/04/27 05:10:53;;;;;;;;;;;5.10;99.90;;;;;;5001222;28;19917;-72
2023/04/27 05:13:19;;;;;;;;;;;5.10;99.90;;;;;;5013061;28;20561;-73
2023/04/27 05:15:45;;;;;;;;;;;5.10;99.90;;;;;;5014214;28;20870;-72
2023/04/27 05:18:11;;;;;;;;;;;5.10;99.90;;;;;;5004699;28;19992;-70
2023/04/27 05:20:37;;;;;;;;;;;5.20;99.90;;;;;;5015641;28;20000;-70
2023/04/27 05:23:05;;;;;;;;;;;5.20;99.90;;;;;;5014715;28;20523;-71
2023/04/27 05:25:31;;;;;;;;;;;5.20;99.90;;;;;;5017495;28;19956;-72
2023/04/27 05:27:57;;;;;;;;;;;5.20;99.90;;;;;;4986483;28;20863;-71
2023/04/27 05:30:23;;;;;;;;;;;5.20;99.90;;;;;;5014264;28;19917;-72
2023/04/27 05:32:48;;;;;;;;;;;5.20;99.90;;;;;;5015843;28;19914;-71
2023/04/27 05:35:14;;;;;;;;;;;5.30;99.90;;;;;;5012055;28;19913;-71
2023/04/27 05:37:40;;;;;;;;;;;5.40;99.90;;;;;;5013160;28;20325;-72
2023/04/27 05:40:08;;;;;;;;;;;5.50;99.90;;;;;;5013770;28;20365;-72
2023/04/27 05:42:33;;;;;;;;;;;5.50;99.90;;;;;;5014788;28;19917;-72
2023/04/27 05:44:59;;;;;;;;;;;5.50;99.90;;;;;;5015012;28;19913;-71
2023/04/27 05:47:25;;;;;;;;;;;5.50;99.90;;;;;;5016599;28;19920;-72
2023/04/27 05:49:51;;;;;;;;;;;5.60;99.90;;;;;;5010410;28;20015;-72
2023/04/27 05:52:17;;;;;;;;;;;5.60;99.90;;;;;;5016318;28;19922;-71
2023/04/27 05:54:47;;;;;;;;;;;5.60;99.90;;;;;;5010139;28;20067;-72
2023/04/27 05:57:12;;;;;;;;;;;5.60;99.90;;;;;;5007157;28;19936;-71
2023/04/27 05:59:38;;;;;;;;;;;5.60;99.90;;;;;;5009599;28;19913;-72
2023/04/27 06:02:04;;;;;;;;;;;5.70;99.90;;;;;;5015279;28;19963;-71
2023/04/27 06:04:32;;;;;;;;;;;5.70;99.90;;;;;;5019667;28;19916;-71
2023/04/27 06:07:00;;;;;;;;;;;5.80;99.90;;;;;;5009321;28;19956;-72
2023/04/27 06:09:26;;;;;;;;;;;5.80;99.90;;;;;;5011340;28;19924;-72
2023/04/27 06:11:52;;;;;;;;;;;5.90;99.90;;;;;;5010906;28;20472;-70
2023/04/27 06:14:17;;;;;;;;;;;8.00;99.90;;;;;;5035251;28;19963;-72
2023/04/27 06:16:43;;;;;;;;;;;7.30;99.90;;;;;;5008834;28;19921;-72
2023/04/27 06:19:09;;;;;;;;;;;7.00;99.90;;;;;;5014582;28;19964;-71
2023/04/27 06:21:34;;;;;;;;;;;6.70;99.90;;;;;;5014147;28;20397;-71
2023/04/27 06:24:00;;;;;;;;;;;6.60;99.90;;;;;;5006363;28;19924;-71
2023/04/27 06:26:26;;;;;;;;;;;6.40;99.90;;;;;;5012957;28;19925;-72
2023/04/27 06:28:52;;;;;;;;;;;6.30;99.90;;;;;;5013323;28;19913;-72
2023/04/27 06:31:17;;;;;;;;;;;6.30;99.90;;;;;;5016943;28;20704;-72
2023/04/27 06:33:43;;;;;;;;;;;6.30;99.90;;;;;;5017092;28;19913;-72
2023/04/27 06:36:08;;;;;;;;;;;6.30;99.90;;;;;;5015546;28;20416;-72
2023/04/27 06:38:34;;;;;;;;;;;6.40;99.90;;;;;;5013208;28;20190;-76
2023/04/27 06:41:00;;;;;;;;;;;6.40;99.90;;;;;;5032406;28;19913;-73
2023/04/27 06:43:25;;;;;;;;;;;6.50;99.90;;;;;;5014485;28;19921;-72
2023/04/27 06:45:51;;;;;;;;;;;6.60;99.90;;;;;;5012538;28;19909;-72
2023/04/27 06:48:17;;;;;;;;;;;6.50;99.90;;;;;;5018169;28;19937;-73
2023/04/27 06:50:42;;;;;;;;;;;6.60;99.90;;;;;;5015599;28;19959;-72
2023/04/27 06:53:09;;;;;;;;;;;6.60;99.90;;;;;;5013245;28;20289;-72
2023/04/27 06:55:34;;;;;;;;;;;6.60;99.90;;;;;;5013495;28;19912;-72
2023/04/27 06:58:00;;;;;;;;;;;6.60;99.90;;;;;;5013966;28;19916;-72
2023/04/27 07:00:26;;;;;;;;;;;6.60;99.90;;;;;;4995573;28;20430;-73
2023/04/27 07:02:51;;;;;;;;;;;6.70;99.90;;;;;;5012266;28;19914;-73
2023/04/27 07:05:17;;;;;;;;;;;6.80;99.90;;;;;;5011290;28;19917;-73
2023/04/27 07:07:43;;;;;;;;;;;6.90;99.90;;;;;;5012880;28;20290;-74
2023/04/27 07:10:09;;;;;;;;;;;7.00;99.90;;;;;;5012229;28;20340;-73
2023/04/27 07:12:35;;;;;;;;;;;7.10;99.90;;;;;;5013445;28;19913;-73
2023/04/27 07:15:03;;;;;;;;;;;7.10;99.90;;;;;;5014318;28;19913;-73
2023/04/27 07:17:28;;;;;;;;;;;7.00;99.90;;;;;;4996215;28;20447;-72
2023/04/27 07:19:54;;;;;;;;;;;7.00;99.90;;;;;;5014602;28;19916;-73
2023/04/27 07:22:20;;;;;;;;;;;7.00;99.90;;;;;;5013320;28;19967;-72
2023/04/27 07:24:46;;;;;;;;;;;7.00;99.90;;;;;;5030630;28;19918;-72
2023/04/27 07:27:12;;;;;;;;;;;7.00;99.90;;;;;;5015035;28;20357;-72
2023/04/27 07:29:38;;;;;;;;;;;7.00;99.90;;;;;;5010187;28;20328;-72
2023/04/27 07:32:04;;;;;;;;;;;7.10;99.90;;;;;;5013720;28;19917;-74
2023/04/27 07:34:30;;;;;;;;;;;7.20;99.90;;;;;;5008007;28;19913;-71
2023/04/27 07:36:56;;;;;;;;;;;7.40;99.90;;;;;;5012767;28;19920;-72
2023/04/27 07:39:22;;;;;;;;;;;7.50;99.90;;;;;;5013636;28;20004;-73
2023/04/27 07:41:48;;;;;;;;;;;7.50;99.90;;;;;;5015617;28;19913;-72
2023/04/27 07:44:14;;;;;;;;;;;7.70;99.90;;;;;;5014565;28;19909;-72
2023/04/27 07:46:40;;;;;;;;;;;7.80;99.90;;;;;;5015840;28;19916;-72
2023/04/27 07:49:06;;;;;;;;;;;7.80;99.90;;;;;;5014177;28;19955;-72
2023/04/27 07:51:33;;;;;;;;;;;7.80;99.90;;;;;;5019555;28;19912;-72
2023/04/27 07:53:59;;;;;;;;;;;7.70;99.90;;;;;;5014920;28;19909;-73
2023/04/27 07:56:25;;;;;;;;;;;7.80;99.90;;;;;;5017503;28;19921;-74
2023/04/27 07:58:50;;;;;;;;;;;7.80;99.90;;;;;;5018444;28;20385;-71
2023/04/27 08:01:16;;;;;;;;;;;7.90;99.90;;;;;;5016178;28;19963;-72
2023/04/27 08:03:41;;;;;;;;;;;8.00;99.90;;;;;;4999402;28;19909;-72
2023/04/27 08:06:07;;;;;;;;;;;8.00;99.90;;;;;;5016996;28;19906;-74
2023/04/27 08:08:33;;;;;;;;;;;8.10;99.90;;;;;;5049361;28;19916;-74
2023/04/27 08:10:58;;;;;;;;;;;8.10;99.90;;;;;;5018905;28;19912;-74
2023/04/27 08:13:24;;;;;;;;;;;8.10;99.90;;;;;;5019692;28;20276;-73
2023/04/27 08:15:50;;;;;;;;;;;8.20;99.90;;;;;;5016001;28;19913;-73
2023/04/27 08:18:16;;;;;;;;;;;8.30;99.90;;;;;;5014933;28;19968;-72
2023/04/27 08:20:42;;;;;;;;;;;8.30;99.90;;;;;;5029886;28;19914;-73
2023/04/27 08:23:08;;;;;;;;;;;8.30;99.90;;;;;;5016497;28;20300;-73
2023/04/27 08:25:36;;;;;;;;;;;8.30;99.90;;;;;;5015959;28;19910;-72
2023/04/27 08:28:03;;;;;;;;;;;8.30;99.90;;;;;;5015675;28;19909;-73
2023/04/27 08:30:29;;;;;;;;;;;8.40;99.90;;;;;;5015859;28;20476;-74
2023/04/27 08:32:54;;;;;;;;;;;8.70;99.90;;;;;;5017147;28;19948;-73
2023/04/27 08:35:20;;;;;;;;;;;8.70;99.90;;;;;;5014348;28;19913;-73
2023/04/27 08:37:45;;;;;;;;;;;8.70;99.90;;;;;;5008753;28;19922;-72
2023/04/27 08:40:11;;;;;;;;;;;8.60;99.90;;;;;;5016817;28;20304;-71
2023/04/27 08:42:39;;;;;;;;;;;8.70;99.90;;;;;;5019923;28;19916;-72
2023/04/27 08:45:06;;;;;;;;;;;8.80;99.90;;;;;;5020180;28;19909;-73
2023/04/27 08:47:31;;;;;;;;;;;9.00;99.90;;;;;;5016108;28;19916;-72
2023/04/27 08:49:57;;;;;;;;;;;9.10;99.90;;;;;;5016947;28;19913;-71
2023/04/27 08:52:22;;;;;;;;;;;9.00;99.90;;;;;;5019105;28;20352;-71
2023/04/27 08:54:48;;;;;;;;;;;8.90;99.60;;;;;;5015836;28;19919;-73
2023/04/27 08:57:15;;;;;;;;;;;8.90;99.80;;;;;;5020492;28;19925;-73
2023/04/27 08:59:41;;;;;;;;;;;8.80;99.00;;;;;;5013826;28;20293;-71
2023/04/27 09:02:17;;;;;;;;;;;8.80;99.30;;;;;;5016505;28;19909;-73
2023/04/27 09:04:42;;;;;;;;;;;8.70;98.00;;;;;;5015470;28;19913;-72
2023/04/27 09:07:14;;;;;;;;;;;8.70;96.90;;;;;;5018973;28;19967;-70
2023/04/27 09:09:40;;;;;;;;;;;8.70;97.00;;;;;;4996068;28;20388;-74
2023/04/27 09:12:15;;;;;;;;;;;8.80;98.20;;;;;;5017118;28;19921;-73
2023/04/27 09:14:41;;;;;;;;;;;9.00;97.60;;;;;;5015767;28;19909;-72
2023/04/27 09:17:07;;;;;;;;;;;9.30;96.80;;;;;;5017551;28;19919;-73
2023/04/27 09:19:33;;;;;;;;;;;9.40;97.00;;;;;;5012883;28;19917;-74
2023/04/27 09:22:06;;;;;;;;;;;9.40;97.50;;;;;;5017721;28;19949;-73
2023/04/27 09:24:31;;;;;;;;;;;9.30;97.70;;;;;;5017472;28;19940;-73
2023/04/27 09:26:57;;;;;;;;;;;9.20;98.30;;;;;;5017134;28;19936;-72
2023/04/27 09:29:33;;;;;;;;;;;9.00;98.20;;;;;;5017592;28;19917;-73
2023/04/27 09:31:59;;;;;;;;;;;8.90;98.90;;;;;;5015544;28;20321;-73
2023/04/27 09:34:24;;;;;;;;;;;9.00;99.50;;;;;;5015169;28;19915;-73
2023/04/27 09:36:50;;;;;;;;;;;9.00;99.30;;;;;;5017052;28;19955;-74
2023/04/27 09:39:17;;;;;;;;;;;9.10;99.20;;;;;;5016544;28;20317;-73
2023/04/27 09:41:43;;;;;;;;;;;9.30;99.10;;;;;;5017843;28;19971;-75
2023/04/27 09:44:09;;;;;;;;;;;9.40;98.10;;;;;;5014268;28;19916;-73
2023/04/27 09:46:35;;;;;;;;;;;9.60;95.20;;;;;;5019188;28;19909;-73
2023/04/27 09:49:03;;;;;;;;;;;9.70;95.30;;;;;;5019515;28;19909;-72
2023/04/27 09:51:28;;;;;;;;;;;9.80;93.40;;;;;;5016816;28;19917;-73
2023/04/27 09:53:56;;;;;;;;;;;9.80;92.90;;;;;;5016112;28;19913;-72
2023/04/27 09:56:36;;;;;;;;;;;9.80;91.20;;;;;;5011318;28;19912;-73
2023/04/27 09:59:08;;;;;;;;;;;9.80;91.80;;;;;;5012655;28;19916;-72
2023/04/27 10:01:48;;;;;;;;;;;9.60;92.90;;;;;;5015999;28;20050;-71
2023/04/27 10:04:20;;;;;;;;;;;9.60;92.90;;;;;;5016095;28;19916;-73
2023/04/27 10:06:56;;;;;;;;;;;9.70;93.80;;;;;;5016432;28;20338;-71
2023/04/27 10:09:22;;;;;;;;;;;9.60;93.80;;;;;;5012881;28;20448;-71
2023/04/27 10:11:49;;;;;;;;;;;9.70;94.00;;;;;;5014355;28;19917;-71
2023/04/27 10:14:17;;;;;;;;;;;9.90;94.20;;;;;;5018152;28;19913;-71
2023/04/27 10:16:44;;;;;;;;;;;9.80;92.70;;;;;;5013316;28;19913;-72
2023/04/27 10:19:09;;;;;;;;;;;9.90;92.90;;;;;;5015360;28;19909;-71
2023/04/27 10:21:35;;;;;;;;;;;10.00;93.00;;;;;;5009319;28;20284;-71
2023/04/27 10:24:07;;;;;;;;;;;10.20;92.90;;;;;;5011199;28;19913;-71
2023/04/27 10:26:33;;;;;;;;;;;10.20;92.50;;;;;;5015330;28;19979;-74
2023/04/27 10:29:06;;;;;;;;;;;10.30;91.30;;;;;;5009674;28;19952;-72
2023/04/27 10:31:32;;;;;;;;;;;10.40;91.30;;;;;;5016513;28;19913;-71
2023/04/27 10:34:04;;;;;;;;;;;10.40;91.10;;;;;;5012250;28;19913;-72
2023/04/27 10:36:35;;;;;;;;;;;10.40;91.50;;;;;;5016218;28;19917;-71
2023/04/27 10:39:02;;;;;;;;;;;10.50;91.90;;;;;;5012170;28;19921;-72
2023/04/27 10:41:37;;;;;;;;;;;10.90;90.50;;;;;;5030300;28;19913;-74
2023/04/27 10:44:12;;;;;;;;;;;11.30;91.70;;;;;;5011936;28;19943;-72
2023/04/27 10:46:48;;;;;;;;;;;11.20;90.00;;;;;;5010728;28;19909;-71
2023/04/27 10:49:14;;;;;;;;;;;10.90;89.80;;;;;;5009543;28;19921;-74
2023/04/27 10:51:40;;;;;;;;;;;10.90;89.40;;;;;;5015785;28;19909;-75
2023/04/27 10:54:07;;;;;;;;;;;10.90;89.00;;;;;;5014820;28;19909;-74
2023/04/27 10:56:32;;;;;;;;;;;10.70;87.20;;;;;;5015482;28;19932;-74
2023/04/27 10:59:02;;;;;;;;;;;10.60;89.20;;;;;;5011871;28;20351;-75
2023/04/27 11:01:28;;;;;;;;;;;10.60;90.10;;;;;;5012551;28;19935;-73
2023/04/27 11:03:58;;;;;;;;;;;10.60;89.50;;;;;;4997531;28;20385;-73
2023/04/27 11:06:23;;;;;;;;;;;10.50;88.70;;;;;;5011964;28;19913;-73
2023/04/27 11:08:49;;;;;;;;;;;10.50;90.10;;;;;;5014163;28;20292;-74
2023/04/27 11:11:16;;;;;;;;;;;10.70;90.70;;;;;;5014709;28;19917;-73
2023/04/27 11:13:42;;;;;;;;;;;11.10;90.90;;;;;;5015711;28;20373;-72
2023/04/27 11:16:08;;;;;;;;;;;11.10;90.00;;;;;;5019079;28;19928;-73
2023/04/27 11:18:35;;;;;;;;;;;11.20;89.50;;;;;;5021807;28;19924;-73
2023/04/27 11:21:08;;;;;;;;;;;12.00;89.40;;;;;;5015662;28;19917;-72
2023/04/27 11:23:37;;;;;;;;;;;12.90;83.70;;;;;;5013655;28;19919;-72
2023/04/27 11:26:09;;;;;;;;;;;14.30;80.90;;;;;;5017035;28;19972;-72
2023/04/27 11:28:35;;;;;;;;;;;15.40;74.30;;;;;;5000621;28;19920;-73
2023/04/27 11:31:00;;;;;;;;;;;16.00;68.20;;;;;;5013470;28;19913;-73
2023/04/27 11:33:26;;;;;;;;;;;16.50;68.60;;;;;;5019227;28;19913;-73
2023/04/27 11:35:52;;;;;;;;;;;16.20;64.20;;;;;;5016718;28;19943;-73
2023/04/27 11:38:18;;;;;;;;;;;15.80;64.80;;;;;;5018782;28;19909;-74
2023/04/27 11:40:45;;;;;;;;;;;15.70;66.40;;;;;;5014534;28;19909;-73
2023/04/27 11:43:12;;;;;;;;;;;15.70;65.80;;;;;;5016308;28;20003;-74
2023/04/27 11:45:40;;;;;;;;;;;15.70;65.40;;;;;;5020272;28;19910;-73
2023/04/27 11:48:06;;;;;;;;;;;15.20;65.00;;;;;;5016234;28;19932;-73
2023/04/27 11:50:33;;;;;;;;;;;14.80;65.50;;;;;;5019235;28;19916;-73
2023/04/27 11:52:59;;;;;;;;;;;13.90;66.90;;;;;;5018550;28;19908;-74
2023/04/27 11:55:25;;;;;;;;;;;13.30;69.20;;;;;;5016952;28;20400;-73
2023/04/27 11:57:55;;;;;;;;;;;13.10;70.10;;;;;;5017302;28;19909;-72
2023/04/27 12:00:21;;;;;;;;;;;13.10;71.40;;;;;;5015994;28;19913;-73
2023/04/27 12:02:47;;;;;;;;;;;13.00;72.20;;;;;;5019588;28;19909;-72
2023/04/27 12:05:13;;;;;;;;;;;13.10;71.60;;;;;;5015925;28;20416;-72
2023/04/27 12:07:38;;;;;;;;;;;13.30;71.20;;;;;;5015860;28;19950;-73
2023/04/27 12:10:05;;;;;;;;;;;13.30;71.40;;;;;;5016999;28;20377;-72
2023/04/27 12:12:32;;;;;;;;;;;13.30;72.20;;;;;;5015157;28;19913;-73
2023/04/27 12:14:57;;;;;;;;;;;13.80;71.20;;;;;;5015507;28;19917;-73
2023/04/27 12:17:23;;;;;;;;;;;14.20;71.30;;;;;;5018544;28;19909;-73
2023/04/27 12:19:49;;;;;;;;;;;14.10;68.20;;;;;;5016821;28;19916;-73
2023/04/27 12:22:15;;;;;;;;;;;13.70;70.10;;;;;;5017733;28;19916;-73
2023/04/27 12:24:40;;;;;;;;;;;13.30;69.70;;;;;;5017675;28;19916;-73
2023/04/27 12:27:07;;;;;;;;;;;12.80;70.80;;;;;;5015439;28;19909;-72
2023/04/27 12:29:32;;;;;;;;;;;12.50;71.10;;;;;;5014256;28;19909;-73
2023/04/27 12:31:58;;;;;;;;;;;12.20;73.50;;;;;;5015267;28;19917;-72
2023/04/27 12:34:24;;;;;;;;;;;12.00;73.50;;;;;;5017792;28;20365;-72
2023/04/27 12:36:50;;;;;;;;;;;11.80;74.80;;;;;;5015231;28;19910;-74
2023/04/27 12:39:19;;;;;;;;;;;11.70;75.30;;;;;;5016796;28;19920;-72
2023/04/27 12:41:48;;;;;;;;;;;11.60;75.20;;;;;;5018356;28;19917;-73
2023/04/27 12:44:15;;;;;;;;;;;11.50;75.50;;;;;;5030208;28;20340;-73
2023/04/27 12:46:41;;;;;;;;;;;11.50;76.50;;;;;;5011423;28;19910;-73
2023/04/27 12:49:07;;;;;;;;;;;11.60;77.70;;;;;;5015360;28;20119;-72
2023/04/27 12:51:33;;;;;;;;;;;11.80;76.30;;;;;;5014157;28;19992;-72
2023/04/27 12:53:59;;;;;;;;;;;11.90;75.30;;;;;;5018319;28;20420;-72
2023/04/27 12:56:25;;;;;;;;;;;11.90;77.30;;;;;;5013675;28;19913;-72
2023/04/27 12:58:51;;;;;;;;;;;11.70;74.30;;;;;;5016634;28;20339;-72
2023/04/27 13:01:18;;;;;;;;;;;11.50;75.60;;;;;;5015261;28;20000;-71
2023/04/27 13:03:46;;;;;;;;;;;11.40;77.60;;;;;;5013179;28;19918;-74
2023/04/27 13:06:12;;;;;;;;;;;11.20;77.60;;;;;;5019883;28;20289;-71
2023/04/27 13:08:38;;;;;;;;;;;11.10;77.90;;;;;;5033065;28;19910;-73
2023/04/27 13:11:04;;;;;;;;;;;10.90;79.20;;;;;;5014496;28;19924;-73
2023/04/27 13:13:29;;;;;;;;;;;10.70;80.20;;;;;;5014207;28;19910;-73
2023/04/27 13:15:57;;;;;;;;;;;10.60;80.70;;;;;;5016443;28;19928;-72
2023/04/27 13:18:23;;;;;;;;;;;10.50;83.20;;;;;;5015558;28;19913;-73
2023/04/27 13:20:48;;;;;;;;;;;10.40;84.70;;;;;;5017415;28;19913;-73
2023/04/27 13:23:14;;;;;;;;;;;10.40;85.70;;;;;;5013628;28;20400;-74
2023/04/27 13:25:40;;;;;;;;;;;10.30;87.50;;;;;;5015754;28;20285;-73
2023/04/27 13:28:06;;;;;;;;;;;10.30;89.10;;;;;;5028300;28;19913;-72
2023/04/27 13:30:32;;;;;;;;;;;10.20;90.40;;;;;;5012510;28;19913;-72
2023/04/27 13:32:57;;;;;;;;;;;10.30;91.60;;;;;;5013073;28;19921;-72
2023/04/27 13:35:23;;;;;;;;;;;10.30;93.30;;;;;;5012522;28;19918;-73
2023/04/27 13:37:50;;;;;;;;;;;10.40;94.50;;;;;;5014359;28;20039;-71
2023/04/27 13:40:15;;;;;;;;;;;10.40;93.90;;;;;;5013292;28;20373;-72
2023/04/27 13:42:41;;;;;;;;;;;10.40;93.40;;;;;;5013056;28;19916;-73
2023/04/27 13:45:07;;;;;;;;;;;10.40;92.80;;;;;;4996617;28;19910;-74
2023/04/27 13:47:36;;;;;;;;;;;10.50;92.10;;;;;;5012337;28;19921;-73
2023/04/27 13:50:09;;;;;;;;;;;10.40;92.80;;;;;;5013966;28;19913;-72
2023/04/27 13:52:35;;;;;;;;;;;10.50;92.20;;;;;;5039860;28;19941;-74
2023/04/27 13:55:05;;;;;;;;;;;10.90;91.80;;;;;;5013174;28;20768;-75
2023/04/27 13:57:31;;;;;;;;;;;11.20;91.50;;;;;;5032397;28;19966;-72
2023/04/27 13:59:59;;;;;;;;;;;11.40;90.00;;;;;;5013636;28;20560;-74
2023/04/27 14:02:25;;;;;;;;;;;11.40;90.10;;;;;;5014816;28;20319;-71
2023/04/27 14:04:52;;;;;;;;;;;11.60;89.60;;;;;;5015733;28;20297;-74
2023/04/27 14:07:18;;;;;;;;;;;11.90;87.90;;;;;;5016546;28;20257;-74
2023/04/27 14:09:44;;;;;;;;;;;12.10;83.90;;;;;;5011003;28;19975;-72
2023/04/27 14:12:10;;;;;;;;;;;12.20;83.10;;;;;;5016228;28;19995;-71
2023/04/27 14:14:36;;;;;;;;;;;12.50;81.20;;;;;;5012307;28;19917;-72
2023/04/27 14:17:01;;;;;;;;;;;12.30;80.80;;;;;;5012215;28;19909;-72
2023/04/27 14:19:27;;;;;;;;;;;12.50;79.70;;;;;;5013949;28;19910;-74
2023/04/27 14:21:54;;;;;;;;;;;12.40;80.10;;;;;;5010596;28;19913;-73